sensor_id;sensor_type;location;lat;lon;timestamp;P1;durP1;ratioP1;P2;durP2;ratioP2
46116;SDS011;32591;48.102;11.772;2023-02-15T00:00:02;12.70;;;6.90;;
46116;SDS011;32591;48.102;11.772;2023-02-15T00:02:33;13.38;;;6.28;;
46116;SDS011;32591;48.102;11.772;2023-02-15T00:05:00;9.83;;;6.20;;
46116;SDS011;32591;48.102;11.772;2023-02-15T00:09:54;11.55;;;6.28;;
46116;SDS011;32591;48.102;11.772;2023-02-15T00:12:21;11.25;;;5.72;;
46116;SDS011;32591;48.102;11.772;2023-02-15T00:19:42;11.48;;;6.25;;
46116;SDS011;32591;48.102;11.772;2023-02-15T00:24:36;10.70;;;5.90;;
46116;SDS011;32591;48.102;11.772;2023-02-15T00:29:30;9.52;;;4.97;;
46116;SDS011;32591;48.102;11.772;2023-02-15T00:36:53;9.60;;;4.32;;
46116;SDS011;32591;48.102;11.772;2023-02-15T00:39:20;10.30;;;5.95;;
46116;SDS011;32591;48.102;11.772;2023-02-15T00:41:48;11.33;;;6.20;;
46116;SDS011;32591;48.102;11.772;2023-02-15T00:44:15;10.30;;;6.43;;
46116;SDS011;32591;48.102;11.772;2023-02-15T00:46:43;10.27;;;5.93;;
46116;SDS011;32591;48.102;11.772;2023-02-15T00:54:05;7.75;;;4.43;;
46116;SDS011;32591;48.102;11.772;2023-02-15T00:56:32;9.05;;;5.20;;
46116;SDS011;32591;48.102;11.772;2023-02-15T01:01:26;9.50;;;5.57;;
46116;SDS011;32591;48.102;11.772;2023-02-15T01:03:53;7.93;;;5.03;;
46116;SDS011;32591;48.102;11.772;2023-02-15T01:11:15;9.15;;;5.03;;
46116;SDS011;32591;48.102;11.772;2023-02-15T01:13:47;8.55;;;4.47;;
46116;SDS011;32591;48.102;11.772;2023-02-15T01:16:15;8.13;;;4.87;;
46116;SDS011;32591;48.102;11.772;2023-02-15T01:18:43;10.50;;;5.47;;
46116;SDS011;32591;48.102;11.772;2023-02-15T01:23:41;8.93;;;5.43;;
46116;SDS011;32591;48.102;11.772;2023-02-15T01:26:08;10.70;;;6.07;;
46116;SDS011;32591;48.102;11.772;2023-02-15T01:28:36;9.35;;;5.80;;
46116;SDS011;32591;48.102;11.772;2023-02-15T01:31:07;12.10;;;5.68;;
46116;SDS011;32591;48.102;11.772;2023-02-15T01:33:36;9.43;;;4.40;;
46116;SDS011;32591;48.102;11.772;2023-02-15T01:36:04;9.00;;;5.97;;
46116;SDS011;32591;48.102;11.772;2023-02-15T01:38:32;9.57;;;4.97;;
46116;SDS011;32591;48.102;11.772;2023-02-15T01:41:00;7.55;;;5.35;;
46116;SDS011;32591;48.102;11.772;2023-02-15T01:43:43;7.25;;;5.15;;
46116;SDS011;32591;48.102;11.772;2023-02-15T01:46:14;9.10;;;5.37;;
46116;SDS011;32591;48.102;11.772;2023-02-15T01:48:44;11.60;;;5.90;;
46116;SDS011;32591;48.102;11.772;2023-02-15T01:51:15;12.13;;;5.70;;
46116;SDS011;32591;48.102;11.772;2023-02-15T01:53:48;9.10;;;5.38;;
46116;SDS011;32591;48.102;11.772;2023-02-15T01:56:23;9.57;;;5.03;;
46116;SDS011;32591;48.102;11.772;2023-02-15T01:58:55;8.93;;;5.07;;
46116;SDS011;32591;48.102;11.772;2023-02-15T02:01:25;11.13;;;5.38;;
46116;SDS011;32591;48.102;11.772;2023-02-15T02:03:56;7.53;;;4.80;;
46116;SDS011;32591;48.102;11.772;2023-02-15T02:06:28;8.35;;;4.53;;
46116;SDS011;32591;48.102;11.772;2023-02-15T02:08:57;9.05;;;5.03;;
46116;SDS011;32591;48.102;11.772;2023-02-15T02:11:25;9.73;;;4.88;;
46116;SDS011;32591;48.102;11.772;2023-02-15T02:13:52;7.50;;;5.30;;
46116;SDS011;32591;48.102;11.772;2023-02-15T02:16:22;10.38;;;6.15;;
46116;SDS011;32591;48.102;11.772;2023-02-15T02:19:01;9.82;;;5.38;;
46116;SDS011;32591;48.102;11.772;2023-02-15T02:22:21;10.43;;;6.13;;
46116;SDS011;32591;48.102;11.772;2023-02-15T02:25:21;9.25;;;5.20;;
46116;SDS011;32591;48.102;11.772;2023-02-15T02:28:14;7.57;;;4.60;;
46116;SDS011;32591;48.102;11.772;2023-02-15T02:31:12;10.90;;;5.73;;
46116;SDS011;32591;48.102;11.772;2023-02-15T02:34:03;12.80;;;6.22;;
46116;SDS011;32591;48.102;11.772;2023-02-15T02:36:35;16.27;;;7.22;;
46116;SDS011;32591;48.102;11.772;2023-02-15T02:39:18;12.40;;;6.30;;
46116;SDS011;32591;48.102;11.772;2023-02-15T02:41:55;10.25;;;5.07;;
46116;SDS011;32591;48.102;11.772;2023-02-15T02:44:29;13.33;;;6.23;;
46116;SDS011;32591;48.102;11.772;2023-02-15T02:47:04;9.52;;;5.18;;
46116;SDS011;32591;48.102;11.772;2023-02-15T02:49:38;7.43;;;4.65;;
46116;SDS011;32591;48.102;11.772;2023-02-15T02:52:07;9.37;;;6.43;;
46116;SDS011;32591;48.102;11.772;2023-02-15T02:57:37;14.05;;;5.97;;
46116;SDS011;32591;48.102;11.772;2023-02-15T03:00:11;12.33;;;5.67;;
46116;SDS011;32591;48.102;11.772;2023-02-15T03:02:41;10.03;;;5.90;;
46116;SDS011;32591;48.102;11.772;2023-02-15T03:05:15;10.17;;;5.50;;
46116;SDS011;32591;48.102;11.772;2023-02-15T03:07:49;9.15;;;5.43;;
46116;SDS011;32591;48.102;11.772;2023-02-15T03:10:19;13.53;;;6.23;;
46116;SDS011;32591;48.102;11.772;2023-02-15T03:12:48;9.23;;;5.43;;
46116;SDS011;32591;48.102;11.772;2023-02-15T03:15:18;11.40;;;6.80;;
46116;SDS011;32591;48.102;11.772;2023-02-15T03:17:49;9.70;;;5.60;;
46116;SDS011;32591;48.102;11.772;2023-02-15T03:20:24;10.55;;;5.90;;
46116;SDS011;32591;48.102;11.772;2023-02-15T03:22:56;11.83;;;5.80;;
46116;SDS011;32591;48.102;11.772;2023-02-15T03:25:27;11.40;;;6.03;;
46116;SDS011;32591;48.102;11.772;2023-02-15T03:28:00;11.10;;;6.63;;
46116;SDS011;32591;48.102;11.772;2023-02-15T03:30:32;12.17;;;6.00;;
46116;SDS011;32591;48.102;11.772;2023-02-15T03:33:02;10.13;;;5.67;;
46116;SDS011;32591;48.102;11.772;2023-02-15T03:35:33;12.93;;;6.57;;
46116;SDS011;32591;48.102;11.772;2023-02-15T03:38:06;12.67;;;6.93;;
46116;SDS011;32591;48.102;11.772;2023-02-15T03:40:36;11.07;;;5.30;;
46116;SDS011;32591;48.102;11.772;2023-02-15T03:43:23;13.60;;;5.93;;
46116;SDS011;32591;48.102;11.772;2023-02-15T03:45:59;12.10;;;5.85;;
46116;SDS011;32591;48.102;11.772;2023-02-15T03:48:36;11.77;;;6.80;;
46116;SDS011;32591;48.102;11.772;2023-02-15T03:51:09;11.57;;;5.73;;
46116;SDS011;32591;48.102;11.772;2023-02-15T03:53:58;11.83;;;4.77;;
46116;SDS011;32591;48.102;11.772;2023-02-15T03:56:26;10.10;;;5.80;;
46116;SDS011;32591;48.102;11.772;2023-02-15T03:58:54;9.43;;;4.83;;
46116;SDS011;32591;48.102;11.772;2023-02-15T04:01:39;8.10;;;5.10;;
46116;SDS011;32591;48.102;11.772;2023-02-15T04:04:26;10.13;;;5.50;;
46116;SDS011;32591;48.102;11.772;2023-02-15T04:07:00;13.70;;;5.03;;
46116;SDS011;32591;48.102;11.772;2023-02-15T04:09:30;14.07;;;6.27;;
46116;SDS011;32591;48.102;11.772;2023-02-15T04:12:14;12.07;;;6.40;;
46116;SDS011;32591;48.102;11.772;2023-02-15T04:17:25;8.27;;;4.67;;
46116;SDS011;32591;48.102;11.772;2023-02-15T04:19:52;10.70;;;5.47;;
46116;SDS011;32591;48.102;11.772;2023-02-15T04:22:38;8.43;;;5.03;;
46116;SDS011;32591;48.102;11.772;2023-02-15T04:25:23;12.07;;;5.80;;
46116;SDS011;32591;48.102;11.772;2023-02-15T04:32:48;8.63;;;4.83;;
46116;SDS011;32591;48.102;11.772;2023-02-15T04:35:16;9.68;;;5.25;;
46116;SDS011;32591;48.102;11.772;2023-02-15T04:37:44;9.33;;;5.60;;
46116;SDS011;32591;48.102;11.772;2023-02-15T04:40:12;9.60;;;5.80;;
46116;SDS011;32591;48.102;11.772;2023-02-15T04:42:40;10.80;;;5.23;;
46116;SDS011;32591;48.102;11.772;2023-02-15T04:47:36;9.20;;;4.90;;
46116;SDS011;32591;48.102;11.772;2023-02-15T04:52:31;8.30;;;4.73;;
46116;SDS011;32591;48.102;11.772;2023-02-15T04:55:00;9.77;;;5.17;;
46116;SDS011;32591;48.102;11.772;2023-02-15T04:57:27;9.73;;;5.10;;
46116;SDS011;32591;48.102;11.772;2023-02-15T04:59:54;8.63;;;5.07;;
46116;SDS011;32591;48.102;11.772;2023-02-15T05:02:22;9.73;;;5.73;;
46116;SDS011;32591;48.102;11.772;2023-02-15T05:04:49;13.30;;;5.97;;
46116;SDS011;32591;48.102;11.772;2023-02-15T05:09:44;10.98;;;5.28;;
46116;SDS011;32591;48.102;11.772;2023-02-15T05:17:05;8.20;;;4.73;;
46116;SDS011;32591;48.102;11.772;2023-02-15T05:21:59;11.47;;;5.23;;
46116;SDS011;32591;48.102;11.772;2023-02-15T05:27:12;8.43;;;4.57;;
46116;SDS011;32591;48.102;11.772;2023-02-15T05:29:57;8.40;;;5.43;;
46116;SDS011;32591;48.102;11.772;2023-02-15T05:34:51;9.43;;;5.50;;
46116;SDS011;32591;48.102;11.772;2023-02-15T05:39:44;9.60;;;4.67;;
46116;SDS011;32591;48.102;11.772;2023-02-15T05:44:39;9.07;;;4.80;;
46116;SDS011;32591;48.102;11.772;2023-02-15T05:49:33;9.93;;;5.13;;
46116;SDS011;32591;48.102;11.772;2023-02-15T05:52:00;11.07;;;5.60;;
46116;SDS011;32591;48.102;11.772;2023-02-15T05:54:28;8.83;;;5.20;;
46116;SDS011;32591;48.102;11.772;2023-02-15T05:59:23;9.23;;;5.13;;
46116;SDS011;32591;48.102;11.772;2023-02-15T06:01:50;9.53;;;5.50;;
46116;SDS011;32591;48.102;11.772;2023-02-15T06:06:44;9.97;;;5.03;;
46116;SDS011;32591;48.102;11.772;2023-02-15T06:11:38;8.47;;;4.40;;
46116;SDS011;32591;48.102;11.772;2023-02-15T06:14:05;6.87;;;4.43;;
46116;SDS011;32591;48.102;11.772;2023-02-15T06:16:34;6.97;;;4.63;;
46116;SDS011;32591;48.102;11.772;2023-02-15T06:19:01;9.30;;;5.30;;
46116;SDS011;32591;48.102;11.772;2023-02-15T06:21:28;7.80;;;4.80;;
46116;SDS011;32591;48.102;11.772;2023-02-15T06:23:56;7.30;;;4.60;;
46116;SDS011;32591;48.102;11.772;2023-02-15T06:26:23;10.17;;;5.30;;
46116;SDS011;32591;48.102;11.772;2023-02-15T06:28:50;9.27;;;5.23;;
46116;SDS011;32591;48.102;11.772;2023-02-15T06:31:17;9.20;;;4.77;;
46116;SDS011;32591;48.102;11.772;2023-02-15T06:33:46;15.60;;;7.93;;
46116;SDS011;32591;48.102;11.772;2023-02-15T06:36:13;10.00;;;5.28;;
46116;SDS011;32591;48.102;11.772;2023-02-15T06:41:07;8.57;;;4.65;;
46116;SDS011;32591;48.102;11.772;2023-02-15T06:46:01;8.10;;;4.60;;
46116;SDS011;32591;48.102;11.772;2023-02-15T06:50:56;9.40;;;4.87;;
46116;SDS011;32591;48.102;11.772;2023-02-15T06:53:23;6.37;;;4.10;;
46116;SDS011;32591;48.102;11.772;2023-02-15T06:58:16;9.43;;;4.97;;
46116;SDS011;32591;48.102;11.772;2023-02-15T07:03:12;9.87;;;4.87;;
46116;SDS011;32591;48.102;11.772;2023-02-15T07:05:40;6.80;;;4.27;;
46116;SDS011;32591;48.102;11.772;2023-02-15T07:08:10;10.20;;;5.83;;
46116;SDS011;32591;48.102;11.772;2023-02-15T07:10:36;9.00;;;4.73;;
46116;SDS011;32591;48.102;11.772;2023-02-15T07:15:29;12.30;;;5.63;;
46116;SDS011;32591;48.102;11.772;2023-02-15T07:20:24;10.05;;;4.95;;
46116;SDS011;32591;48.102;11.772;2023-02-15T07:25:19;8.20;;;4.53;;
46116;SDS011;32591;48.102;11.772;2023-02-15T07:27:46;8.97;;;5.17;;
46116;SDS011;32591;48.102;11.772;2023-02-15T07:30:14;10.90;;;5.60;;
46116;SDS011;32591;48.102;11.772;2023-02-15T07:32:43;10.10;;;5.40;;
46116;SDS011;32591;48.102;11.772;2023-02-15T07:35:24;8.07;;;5.20;;
46116;SDS011;32591;48.102;11.772;2023-02-15T07:37:51;9.33;;;5.43;;
46116;SDS011;32591;48.102;11.772;2023-02-15T07:42:48;13.87;;;7.57;;
46116;SDS011;32591;48.102;11.772;2023-02-15T07:45:18;11.10;;;6.13;;
46116;SDS011;32591;48.102;11.772;2023-02-15T07:47:45;11.60;;;5.87;;
46116;SDS011;32591;48.102;11.772;2023-02-15T07:50:12;10.90;;;6.87;;
46116;SDS011;32591;48.102;11.772;2023-02-15T07:52:39;12.27;;;5.90;;
46116;SDS011;32591;48.102;11.772;2023-02-15T07:57:35;13.02;;;6.43;;
46116;SDS011;32591;48.102;11.772;2023-02-15T08:00:02;11.03;;;5.83;;
46116;SDS011;32591;48.102;11.772;2023-02-15T08:02:30;10.27;;;5.63;;
46116;SDS011;32591;48.102;11.772;2023-02-15T08:07:24;11.67;;;6.27;;
46116;SDS011;32591;48.102;11.772;2023-02-15T08:12:18;12.30;;;7.85;;
46116;SDS011;32591;48.102;11.772;2023-02-15T08:17:14;12.43;;;7.00;;
46116;SDS011;32591;48.102;11.772;2023-02-15T08:22:07;12.87;;;7.30;;
46116;SDS011;32591;48.102;11.772;2023-02-15T08:24:39;14.43;;;7.47;;
46116;SDS011;32591;48.102;11.772;2023-02-15T08:27:07;14.80;;;7.30;;
46116;SDS011;32591;48.102;11.772;2023-02-15T08:29:37;14.50;;;6.80;;
46116;SDS011;32591;48.102;11.772;2023-02-15T08:32:09;12.10;;;6.80;;
46116;SDS011;32591;48.102;11.772;2023-02-15T08:34:39;12.43;;;6.18;;
46116;SDS011;32591;48.102;11.772;2023-02-15T08:37:07;12.25;;;6.53;;
46116;SDS011;32591;48.102;11.772;2023-02-15T08:39:34;9.30;;;5.80;;
46116;SDS011;32591;48.102;11.772;2023-02-15T08:42:02;11.35;;;6.68;;
46116;SDS011;32591;48.102;11.772;2023-02-15T08:44:29;12.38;;;6.72;;
46116;SDS011;32591;48.102;11.772;2023-02-15T08:49:29;10.93;;;6.40;;
46116;SDS011;32591;48.102;11.772;2023-02-15T08:51:56;14.88;;;7.43;;
46116;SDS011;32591;48.102;11.772;2023-02-15T08:56:50;11.70;;;6.35;;
46116;SDS011;32591;48.102;11.772;2023-02-15T08:59:17;10.27;;;6.80;;
46116;SDS011;32591;48.102;11.772;2023-02-15T09:01:47;13.20;;;6.43;;
46116;SDS011;32591;48.102;11.772;2023-02-15T09:04:16;12.38;;;6.95;;
46116;SDS011;32591;48.102;11.772;2023-02-15T09:06:45;11.52;;;6.35;;
46116;SDS011;32591;48.102;11.772;2023-02-15T09:09:13;13.50;;;7.65;;
46116;SDS011;32591;48.102;11.772;2023-02-15T09:11:42;12.15;;;6.63;;
46116;SDS011;32591;48.102;11.772;2023-02-15T09:14:11;13.35;;;5.40;;
46116;SDS011;32591;48.102;11.772;2023-02-15T09:16:40;10.75;;;6.70;;
46116;SDS011;32591;48.102;11.772;2023-02-15T09:19:09;16.30;;;8.02;;
46116;SDS011;32591;48.102;11.772;2023-02-15T09:24:06;14.07;;;6.07;;
46116;SDS011;32591;48.102;11.772;2023-02-15T09:26:35;14.23;;;7.03;;
46116;SDS011;32591;48.102;11.772;2023-02-15T09:29:05;13.40;;;7.35;;
46116;SDS011;32591;48.102;11.772;2023-02-15T09:31:33;26.02;;;15.52;;
46116;SDS011;32591;48.102;11.772;2023-02-15T09:34:06;17.10;;;9.77;;
46116;SDS011;32591;48.102;11.772;2023-02-15T09:39:04;12.55;;;7.13;;
46116;SDS011;32591;48.102;11.772;2023-02-15T09:41:39;12.20;;;7.40;;
46116;SDS011;32591;48.102;11.772;2023-02-15T09:47:41;10.20;;;6.70;;
46116;SDS011;32591;48.102;11.772;2023-02-15T09:50:43;11.88;;;6.88;;
46116;SDS011;32591;48.102;11.772;2023-02-15T09:53:36;10.80;;;6.78;;
46116;SDS011;32591;48.102;11.772;2023-02-15T09:56:22;11.95;;;7.80;;
46116;SDS011;32591;48.102;11.772;2023-02-15T09:59:03;11.88;;;7.43;;
46116;SDS011;32591;48.102;11.772;2023-02-15T10:01:40;13.30;;;7.67;;
46116;SDS011;32591;48.102;11.772;2023-02-15T10:04:20;12.02;;;7.65;;
46116;SDS011;32591;48.102;11.772;2023-02-15T10:07:06;13.60;;;7.53;;
46116;SDS011;32591;48.102;11.772;2023-02-15T10:09:47;13.95;;;7.82;;
46116;SDS011;32591;48.102;11.772;2023-02-15T10:12:31;14.80;;;8.65;;
46116;SDS011;32591;48.102;11.772;2023-02-15T10:15:18;12.90;;;7.53;;
46116;SDS011;32591;48.102;11.772;2023-02-15T10:18:05;11.75;;;6.38;;
46116;SDS011;32591;48.102;11.772;2023-02-15T10:20:49;24.92;;;11.40;;
46116;SDS011;32591;48.102;11.772;2023-02-15T10:23:29;14.00;;;7.43;;
46116;SDS011;32591;48.102;11.772;2023-02-15T10:26:15;20.58;;;10.98;;
46116;SDS011;32591;48.102;11.772;2023-02-15T10:28:48;10.07;;;6.53;;
46116;SDS011;32591;48.102;11.772;2023-02-15T10:31:22;13.93;;;7.90;;
46116;SDS011;32591;48.102;11.772;2023-02-15T10:33:56;11.80;;;6.60;;
46116;SDS011;32591;48.102;11.772;2023-02-15T10:39:54;12.18;;;6.32;;
46116;SDS011;32591;48.102;11.772;2023-02-15T10:42:34;9.70;;;6.28;;
46116;SDS011;32591;48.102;11.772;2023-02-15T10:45:17;13.98;;;6.20;;
46116;SDS011;32591;48.102;11.772;2023-02-15T10:48:03;11.95;;;7.65;;
46116;SDS011;32591;48.102;11.772;2023-02-15T10:51:00;11.50;;;6.35;;
46116;SDS011;32591;48.102;11.772;2023-02-15T10:53:36;10.77;;;6.88;;
46116;SDS011;32591;48.102;11.772;2023-02-15T10:56:19;10.20;;;6.43;;
46116;SDS011;32591;48.102;11.772;2023-02-15T10:58:55;11.02;;;7.55;;
46116;SDS011;32591;48.102;11.772;2023-02-15T11:01:41;11.90;;;7.20;;
46116;SDS011;32591;48.102;11.772;2023-02-15T11:04:33;11.48;;;7.40;;
46116;SDS011;32591;48.102;11.772;2023-02-15T11:07:08;11.65;;;6.93;;
46116;SDS011;32591;48.102;11.772;2023-02-15T11:09:43;11.45;;;6.72;;
46116;SDS011;32591;48.102;11.772;2023-02-15T11:12:16;10.27;;;6.80;;
46116;SDS011;32591;48.102;11.772;2023-02-15T11:14:46;13.57;;;7.25;;
46116;SDS011;32591;48.102;11.772;2023-02-15T11:17:22;10.73;;;6.60;;
46116;SDS011;32591;48.102;11.772;2023-02-15T11:19:55;10.90;;;6.28;;
46116;SDS011;32591;48.102;11.772;2023-02-15T11:22:29;10.63;;;6.82;;
46116;SDS011;32591;48.102;11.772;2023-02-15T11:24:58;12.48;;;6.72;;
46116;SDS011;32591;48.102;11.772;2023-02-15T11:27:28;10.13;;;7.35;;
46116;SDS011;32591;48.102;11.772;2023-02-15T11:29:59;14.35;;;7.15;;
46116;SDS011;32591;48.102;11.772;2023-02-15T11:32:32;10.85;;;7.00;;
46116;SDS011;32591;48.102;11.772;2023-02-15T11:35:05;11.52;;;6.88;;
46116;SDS011;32591;48.102;11.772;2023-02-15T11:37:46;11.55;;;7.05;;
46116;SDS011;32591;48.102;11.772;2023-02-15T11:40:19;10.75;;;6.65;;
46116;SDS011;32591;48.102;11.772;2023-02-15T11:42:51;13.52;;;7.00;;
46116;SDS011;32591;48.102;11.772;2023-02-15T11:45:22;16.58;;;7.55;;
46116;SDS011;32591;48.102;11.772;2023-02-15T11:47:56;10.48;;;6.57;;
46116;SDS011;32591;48.102;11.772;2023-02-15T11:50:24;14.65;;;7.63;;
46116;SDS011;32591;48.102;11.772;2023-02-15T11:52:56;11.32;;;6.93;;
46116;SDS011;32591;48.102;11.772;2023-02-15T11:55:26;13.77;;;7.13;;
46116;SDS011;32591;48.102;11.772;2023-02-15T11:57:55;12.30;;;7.13;;
46116;SDS011;32591;48.102;11.772;2023-02-15T12:00:31;10.20;;;7.53;;
46116;SDS011;32591;48.102;11.772;2023-02-15T12:03:04;11.60;;;6.55;;
46116;SDS011;32591;48.102;11.772;2023-02-15T12:05:40;11.23;;;7.28;;
46116;SDS011;32591;48.102;11.772;2023-02-15T12:08:13;14.23;;;6.82;;
46116;SDS011;32591;48.102;11.772;2023-02-15T12:10:55;10.23;;;6.32;;
46116;SDS011;32591;48.102;11.772;2023-02-15T12:13:27;11.48;;;6.68;;
46116;SDS011;32591;48.102;11.772;2023-02-15T12:15:55;13.13;;;7.40;;
46116;SDS011;32591;48.102;11.772;2023-02-15T12:18:33;17.10;;;7.40;;
46116;SDS011;32591;48.102;11.772;2023-02-15T12:21:05;11.30;;;6.65;;
46116;SDS011;32591;48.102;11.772;2023-02-15T12:23:34;11.13;;;7.55;;
46116;SDS011;32591;48.102;11.772;2023-02-15T12:26:10;11.75;;;7.50;;
46116;SDS011;32591;48.102;11.772;2023-02-15T12:28:37;10.18;;;6.75;;
46116;SDS011;32591;48.102;11.772;2023-02-15T12:31:09;17.05;;;7.80;;
46116;SDS011;32591;48.102;11.772;2023-02-15T12:33:48;10.68;;;6.75;;
46116;SDS011;32591;48.102;11.772;2023-02-15T12:36:19;10.88;;;6.93;;
46116;SDS011;32591;48.102;11.772;2023-02-15T12:39:09;10.45;;;6.35;;
46116;SDS011;32591;48.102;11.772;2023-02-15T12:41:46;13.00;;;6.68;;
46116;SDS011;32591;48.102;11.772;2023-02-15T12:44:26;13.65;;;7.78;;
46116;SDS011;32591;48.102;11.772;2023-02-15T12:46:56;11.43;;;8.07;;
46116;SDS011;32591;48.102;11.772;2023-02-15T12:49:27;16.13;;;8.52;;
46116;SDS011;32591;48.102;11.772;2023-02-15T12:51:56;11.77;;;7.05;;
46116;SDS011;32591;48.102;11.772;2023-02-15T12:54:29;12.13;;;8.02;;
46116;SDS011;32591;48.102;11.772;2023-02-15T12:57:12;13.55;;;8.38;;
46116;SDS011;32591;48.102;11.772;2023-02-15T12:59:52;14.27;;;8.63;;
46116;SDS011;32591;48.102;11.772;2023-02-15T13:02:23;12.88;;;7.75;;
46116;SDS011;32591;48.102;11.772;2023-02-15T13:04:55;10.82;;;7.70;;
46116;SDS011;32591;48.102;11.772;2023-02-15T13:07:24;9.98;;;6.75;;
46116;SDS011;32591;48.102;11.772;2023-02-15T13:09:57;12.68;;;8.85;;
46116;SDS011;32591;48.102;11.772;2023-02-15T13:12:25;18.92;;;9.23;;
46116;SDS011;32591;48.102;11.772;2023-02-15T13:14:55;14.43;;;8.18;;
46116;SDS011;32591;48.102;11.772;2023-02-15T13:17:25;13.48;;;8.10;;
46116;SDS011;32591;48.102;11.772;2023-02-15T13:19:57;14.35;;;7.93;;
46116;SDS011;32591;48.102;11.772;2023-02-15T13:22:31;12.75;;;8.23;;
46116;SDS011;32591;48.102;11.772;2023-02-15T13:25:09;12.30;;;7.70;;
46116;SDS011;32591;48.102;11.772;2023-02-15T13:27:41;11.40;;;7.45;;
46116;SDS011;32591;48.102;11.772;2023-02-15T13:30:22;11.43;;;8.20;;
46116;SDS011;32591;48.102;11.772;2023-02-15T13:32:52;13.85;;;7.60;;
46116;SDS011;32591;48.102;11.772;2023-02-15T13:35:25;12.48;;;7.80;;
46116;SDS011;32591;48.102;11.772;2023-02-15T13:38:06;14.18;;;8.52;;
46116;SDS011;32591;48.102;11.772;2023-02-15T13:40:48;13.13;;;7.93;;
46116;SDS011;32591;48.102;11.772;2023-02-15T13:43:25;12.40;;;7.72;;
46116;SDS011;32591;48.102;11.772;2023-02-15T13:46:06;12.75;;;8.15;;
46116;SDS011;32591;48.102;11.772;2023-02-15T13:48:47;13.63;;;8.35;;
46116;SDS011;32591;48.102;11.772;2023-02-15T13:51:31;13.95;;;8.77;;
46116;SDS011;32591;48.102;11.772;2023-02-15T13:54:11;14.23;;;8.30;;
46116;SDS011;32591;48.102;11.772;2023-02-15T13:57:31;13.40;;;8.50;;
46116;SDS011;32591;48.102;11.772;2023-02-15T14:00:20;13.98;;;8.45;;
46116;SDS011;32591;48.102;11.772;2023-02-15T14:06:11;13.90;;;8.93;;
46116;SDS011;32591;48.102;11.772;2023-02-15T14:09:04;13.55;;;7.72;;
46116;SDS011;32591;48.102;11.772;2023-02-15T14:11:46;14.50;;;8.50;;
46116;SDS011;32591;48.102;11.772;2023-02-15T14:14:40;13.98;;;8.95;;
46116;SDS011;32591;48.102;11.772;2023-02-15T14:17:28;11.32;;;7.78;;
46116;SDS011;32591;48.102;11.772;2023-02-15T14:20:07;15.80;;;9.10;;
46116;SDS011;32591;48.102;11.772;2023-02-15T14:22:46;12.77;;;9.23;;
46116;SDS011;32591;48.102;11.772;2023-02-15T14:25:22;15.60;;;8.60;;
46116;SDS011;32591;48.102;11.772;2023-02-15T14:27:55;14.73;;;9.38;;
46116;SDS011;32591;48.102;11.772;2023-02-15T14:30:30;16.45;;;10.77;;
46116;SDS011;32591;48.102;11.772;2023-02-15T14:33:01;16.60;;;10.13;;
46116;SDS011;32591;48.102;11.772;2023-02-15T14:35:34;16.33;;;9.50;;
46116;SDS011;32591;48.102;11.772;2023-02-15T14:38:04;16.33;;;10.48;;
46116;SDS011;32591;48.102;11.772;2023-02-15T14:40:42;15.57;;;10.05;;
46116;SDS011;32591;48.102;11.772;2023-02-15T14:43:29;19.42;;;11.07;;
46116;SDS011;32591;48.102;11.772;2023-02-15T14:46:11;16.80;;;9.57;;
46116;SDS011;32591;48.102;11.772;2023-02-15T14:48:50;16.73;;;10.55;;
46116;SDS011;32591;48.102;11.772;2023-02-15T14:59:56;15.43;;;9.93;;
46116;SDS011;32591;48.102;11.772;2023-02-15T15:02:26;17.13;;;10.45;;
46116;SDS011;32591;48.102;11.772;2023-02-15T15:04:59;16.30;;;9.57;;
46116;SDS011;32591;48.102;11.772;2023-02-15T15:07:37;18.42;;;10.43;;
46116;SDS011;32591;48.102;11.772;2023-02-15T15:13:37;20.65;;;11.32;;
46116;SDS011;32591;48.102;11.772;2023-02-15T15:16:27;18.73;;;9.48;;
46116;SDS011;32591;48.102;11.772;2023-02-15T15:18:58;16.50;;;10.50;;
46116;SDS011;32591;48.102;11.772;2023-02-15T15:24:51;17.17;;;10.57;;
46116;SDS011;32591;48.102;11.772;2023-02-15T15:46:57;20.17;;;11.15;;
46116;SDS011;32591;48.102;11.772;2023-02-15T15:49:59;21.13;;;12.30;;
46116;SDS011;32591;48.102;11.772;2023-02-15T15:52:26;18.65;;;11.13;;
46116;SDS011;32591;48.102;11.772;2023-02-15T15:54:57;20.02;;;10.52;;
46116;SDS011;32591;48.102;11.772;2023-02-15T15:57:31;18.63;;;10.38;;
46116;SDS011;32591;48.102;11.772;2023-02-15T16:00:17;16.95;;;10.80;;
46116;SDS011;32591;48.102;11.772;2023-02-15T16:02:58;19.77;;;11.77;;
46116;SDS011;32591;48.102;11.772;2023-02-15T16:05:25;21.80;;;10.98;;
46116;SDS011;32591;48.102;11.772;2023-02-15T16:07:52;18.42;;;11.43;;
46116;SDS011;32591;48.102;11.772;2023-02-15T16:10:20;20.15;;;10.68;;
46116;SDS011;32591;48.102;11.772;2023-02-15T16:12:50;19.85;;;11.90;;
46116;SDS011;32591;48.102;11.772;2023-02-15T16:15:20;21.48;;;10.82;;
46116;SDS011;32591;48.102;11.772;2023-02-15T16:17:50;23.83;;;10.98;;
46116;SDS011;32591;48.102;11.772;2023-02-15T16:20:22;18.73;;;10.77;;
46116;SDS011;32591;48.102;11.772;2023-02-15T16:22:53;22.38;;;11.82;;
46116;SDS011;32591;48.102;11.772;2023-02-15T16:25:37;19.02;;;11.50;;
46116;SDS011;32591;48.102;11.772;2023-02-15T16:28:13;20.20;;;11.55;;
46116;SDS011;32591;48.102;11.772;2023-02-15T16:30:44;21.83;;;11.82;;
46116;SDS011;32591;48.102;11.772;2023-02-15T16:33:12;19.38;;;11.35;;
46116;SDS011;32591;48.102;11.772;2023-02-15T16:35:52;20.10;;;11.65;;
46116;SDS011;32591;48.102;11.772;2023-02-15T16:38:23;20.00;;;11.48;;
46116;SDS011;32591;48.102;11.772;2023-02-15T16:41:20;20.75;;;11.75;;
46116;SDS011;32591;48.102;11.772;2023-02-15T16:43:50;20.13;;;11.98;;
46116;SDS011;32591;48.102;11.772;2023-02-15T16:46:22;16.40;;;10.93;;
46116;SDS011;32591;48.102;11.772;2023-02-15T16:48:52;20.35;;;12.15;;
46116;SDS011;32591;48.102;11.772;2023-02-15T16:51:23;17.02;;;10.90;;
46116;SDS011;32591;48.102;11.772;2023-02-15T16:53:53;19.20;;;11.65;;
46116;SDS011;32591;48.102;11.772;2023-02-15T16:56:22;19.92;;;11.65;;
46116;SDS011;32591;48.102;11.772;2023-02-15T16:58:52;22.05;;;11.23;;
46116;SDS011;32591;48.102;11.772;2023-02-15T17:01:24;21.42;;;11.88;;
46116;SDS011;32591;48.102;11.772;2023-02-15T17:04:10;21.88;;;12.07;;
46116;SDS011;32591;48.102;11.772;2023-02-15T17:06:39;21.15;;;11.65;;
46116;SDS011;32591;48.102;11.772;2023-02-15T17:09:13;18.42;;;10.75;;
46116;SDS011;32591;48.102;11.772;2023-02-15T17:16:54;21.77;;;11.48;;
46116;SDS011;32591;48.102;11.772;2023-02-15T17:19:28;21.55;;;11.63;;
46116;SDS011;32591;48.102;11.772;2023-02-15T17:21:58;20.38;;;10.85;;
46116;SDS011;32591;48.102;11.772;2023-02-15T17:24:31;22.13;;;11.27;;
46116;SDS011;32591;48.102;11.772;2023-02-15T17:27:06;23.77;;;11.82;;
46116;SDS011;32591;48.102;11.772;2023-02-15T17:29:39;22.38;;;12.18;;
46116;SDS011;32591;48.102;11.772;2023-02-15T17:32:16;26.65;;;11.48;;
46116;SDS011;32591;48.102;11.772;2023-02-15T17:34:50;23.33;;;10.90;;
46116;SDS011;32591;48.102;11.772;2023-02-15T17:37:29;20.15;;;10.90;;
46116;SDS011;32591;48.102;11.772;2023-02-15T17:39:59;22.95;;;11.40;;
46116;SDS011;32591;48.102;11.772;2023-02-15T17:42:27;23.38;;;13.30;;
46116;SDS011;32591;48.102;11.772;2023-02-15T17:44:54;19.20;;;11.05;;
46116;SDS011;32591;48.102;11.772;2023-02-15T17:49:51;21.95;;;11.38;;
46116;SDS011;32591;48.102;11.772;2023-02-15T17:52:19;26.35;;;13.13;;